createdAt,value
2022-09-10T00:01:41.782Z,16.79
2022-09-10T00:04:12.076Z,16.76
2022-09-10T00:06:38.969Z,16.78
2022-09-10T00:09:10.031Z,16.75
2022-09-10T00:11:39.020Z,16.77
2022-09-10T00:14:07.984Z,16.79
2022-09-10T00:16:34.662Z,16.75
2022-09-10T00:19:02.288Z,16.78
2022-09-10T00:21:30.630Z,16.81
2022-09-10T00:23:57.903Z,16.77
2022-09-10T00:26:27.442Z,16.73
2022-09-10T00:28:56.421Z,16.76
2022-09-10T00:31:23.580Z,16.80
2022-09-10T00:33:51.120Z,16.74
2022-09-10T00:36:24.092Z,16.73
2022-09-10T00:38:53.298Z,16.73
2022-09-10T00:41:21.969Z,16.73
2022-09-10T00:43:55.881Z,16.77
2022-09-10T00:46:33.758Z,16.73
2022-09-10T00:49:05.229Z,16.75
2022-09-10T00:51:35.748Z,16.69
2022-09-10T00:54:03.461Z,16.68
2022-09-10T00:56:31.393Z,16.70
2022-09-10T00:58:58.102Z,16.67
2022-09-10T01:01:24.662Z,16.59
2022-09-10T01:03:53.074Z,16.56
2022-09-10T01:06:19.610Z,16.65
2022-09-10T01:08:46.095Z,16.63
2022-09-10T01:11:50.077Z,16.60
2022-09-10T01:14:29.818Z,16.57
2022-09-10T01:17:07.402Z,16.60
2022-09-10T01:19:57.103Z,16.56
2022-09-10T01:22:51.425Z,16.62
2022-09-10T01:25:33.337Z,16.56
2022-09-10T01:28:06.796Z,16.56
2022-09-10T01:30:45.626Z,16.47
2022-09-10T01:33:21.424Z,16.52
2022-09-10T01:35:59.860Z,16.43
2022-09-10T01:38:35.636Z,16.44
2022-09-10T01:41:02.758Z,16.48
2022-09-10T01:43:29.222Z,16.44
2022-09-10T01:46:19.234Z,16.50
2022-09-10T01:48:54.740Z,16.51
2022-09-10T01:51:36.963Z,16.39
2022-09-10T01:54:28.457Z,16.44
2022-09-10T01:57:13.845Z,16.42
2022-09-10T02:00:15.780Z,16.45
2022-09-10T02:03:04.097Z,16.47
2022-09-10T02:05:35.284Z,16.49
2022-09-10T02:08:07.088Z,16.39
2022-09-10T02:10:33.907Z,16.44
2022-09-10T02:13:00.402Z,16.45
2022-09-10T02:15:28.762Z,16.41
2022-09-10T02:17:55.947Z,16.44
2022-09-10T02:20:23.238Z,16.47
2022-09-10T02:22:54.597Z,16.51
2022-09-10T02:25:21.251Z,16.54
2022-09-10T02:27:49.027Z,16.56
2022-09-10T02:30:16.942Z,16.54
2022-09-10T02:32:43.438Z,16.47
2022-09-10T02:35:09.930Z,16.56
2022-09-10T02:37:37.220Z,16.53
2022-09-10T02:40:04.616Z,16.51
2022-09-10T02:42:31.105Z,16.51
2022-09-10T02:44:57.630Z,16.55
2022-09-10T02:47:24.175Z,16.48
2022-09-10T02:49:50.708Z,16.50
2022-09-10T02:52:17.365Z,16.51
2022-09-10T02:54:43.942Z,16.56
2022-09-10T02:57:12.244Z,16.56
2022-09-10T02:59:38.845Z,16.57
2022-09-10T03:02:06.479Z,16.50
2022-09-10T03:04:33.095Z,16.46
2022-09-10T03:06:59.688Z,16.52
2022-09-10T03:09:28.946Z,16.61
2022-09-10T03:11:55.769Z,16.58
2022-09-10T03:14:24.573Z,16.58
2022-09-10T03:16:51.234Z,16.63
2022-09-10T03:19:17.719Z,16.54
2022-09-10T03:21:47.527Z,16.51
2022-09-10T03:24:15.495Z,16.48
2022-09-10T03:26:44.436Z,16.49
2022-09-10T03:29:14.114Z,16.58
2022-09-10T03:31:40.789Z,16.57
2022-09-10T03:34:08.129Z,16.59
2022-09-10T03:36:34.612Z,16.56
2022-09-10T03:39:01.169Z,16.57
2022-09-10T03:41:28.508Z,16.59
2022-09-10T03:43:55.645Z,16.56
2022-09-10T03:46:22.794Z,16.59
2022-09-10T03:48:54.629Z,16.55
2022-09-10T03:51:23.275Z,16.60
2022-09-10T03:53:49.780Z,16.57
2022-09-10T03:56:20.049Z,16.60
2022-09-10T03:58:49.184Z,16.63
2022-09-10T04:01:19.722Z,16.63
2022-09-10T04:03:46.987Z,16.63
2022-09-10T04:06:14.777Z,16.65
2022-09-10T04:08:43.429Z,16.62
2022-09-10T04:11:10.277Z,16.64
2022-09-10T04:13:36.828Z,16.66
2022-09-10T04:16:03.397Z,16.55
2022-09-10T04:18:30.179Z,16.60
2022-09-10T04:20:56.630Z,16.64
2022-09-10T04:23:23.264Z,16.55
2022-09-10T04:25:50.638Z,16.56
2022-09-10T04:28:17.278Z,16.56
2022-09-10T04:30:45.181Z,16.61
2022-09-10T04:33:11.754Z,16.65
2022-09-10T04:35:39.604Z,16.64
2022-09-10T04:38:07.198Z,16.66
2022-09-10T04:40:34.354Z,16.68
2022-09-10T04:43:01.298Z,16.64
2022-09-10T04:45:27.877Z,16.58
2022-09-10T04:47:54.410Z,16.64
2022-09-10T04:50:21.972Z,16.66
2022-09-10T04:52:48.562Z,16.62
2022-09-10T04:55:15.641Z,16.64
2022-09-10T04:57:42.310Z,16.65
2022-09-10T05:00:09.405Z,16.62
2022-09-10T05:02:37.827Z,16.64
2022-09-10T05:05:04.740Z,16.65
2022-09-10T05:07:31.213Z,16.59
2022-09-10T05:09:57.662Z,16.59
2022-09-10T05:12:24.356Z,16.61
2022-09-10T05:14:51.074Z,16.64
2022-09-10T05:17:17.594Z,16.68
2022-09-10T05:19:44.087Z,16.69
2022-09-10T05:22:10.750Z,16.71
2022-09-10T05:24:37.300Z,16.71
2022-09-10T05:27:03.900Z,16.66
2022-09-10T05:29:33.610Z,16.68
2022-09-10T05:32:00.144Z,16.68
2022-09-10T05:34:26.577Z,16.58
2022-09-10T05:36:53.049Z,16.54
2022-09-10T05:39:20.375Z,16.58
2022-09-10T05:41:46.839Z,16.64
2022-09-10T05:44:15.151Z,16.63
2022-09-10T05:46:41.715Z,16.66
2022-09-10T05:49:08.668Z,16.61
2022-09-10T05:51:35.139Z,16.61
2022-09-10T05:54:01.673Z,16.56
2022-09-10T05:56:28.122Z,16.62
2022-09-10T05:58:54.619Z,16.68
2022-09-10T06:01:21.235Z,16.69
2022-09-10T06:03:48.578Z,16.59
2022-09-10T06:06:15.324Z,16.63
2022-09-10T06:08:41.913Z,16.67
2022-09-10T06:11:11.845Z,16.70
2022-09-10T06:13:40.542Z,16.78
2022-09-10T06:16:07.808Z,16.80
2022-09-10T06:18:34.551Z,16.72
2022-09-10T06:21:03.354Z,16.77
2022-09-10T06:23:31.370Z,16.76
2022-09-10T06:26:04.315Z,16.82
2022-09-10T06:28:33.059Z,16.88
2022-09-10T06:30:59.927Z,16.89
2022-09-10T06:33:27.005Z,16.89
2022-09-10T06:35:56.513Z,16.90
2022-09-10T06:38:24.087Z,16.93
2022-09-10T06:40:55.263Z,16.93
2022-09-10T06:43:23.646Z,16.92
2022-09-10T06:45:53.144Z,16.99
2022-09-10T06:48:39.592Z,16.96
2022-09-10T06:51:09.796Z,17.00
2022-09-10T06:53:37.403Z,17.03
2022-09-10T06:56:06.133Z,17.00
2022-09-10T06:58:36.156Z,17.04
2022-09-10T07:01:14.089Z,17.02
2022-09-10T07:03:41.472Z,17.06
2022-09-10T07:06:10.999Z,17.16
2022-09-10T07:08:37.493Z,17.16
2022-09-10T07:11:06.211Z,17.28
2022-09-10T07:13:32.721Z,17.44
2022-09-10T07:15:59.363Z,17.65
2022-09-10T07:18:26.353Z,17.79
2022-09-10T07:20:52.943Z,17.87
2022-09-10T07:23:21.675Z,18.02
2022-09-10T07:25:48.763Z,17.94
2022-09-10T07:28:18.159Z,17.89
2022-09-10T07:30:45.358Z,18.01
2022-09-10T07:33:11.993Z,17.79
2022-09-10T07:35:38.916Z,17.83
2022-09-10T07:38:07.586Z,17.84
2022-09-10T07:40:34.364Z,17.81
2022-09-10T07:43:00.921Z,17.77
2022-09-10T07:45:28.266Z,17.82
2022-09-10T07:47:54.843Z,17.87
2022-09-10T07:50:21.480Z,17.86
2022-09-10T07:52:49.247Z,17.83
2022-09-10T07:55:16.006Z,17.91
2022-09-10T07:57:42.496Z,17.94
2022-09-10T08:00:12.361Z,18.02
2022-09-10T08:02:39.381Z,17.92
2022-09-10T08:05:06.388Z,17.98
2022-09-10T08:07:32.904Z,18.12
2022-09-10T08:09:59.461Z,18.04
2022-09-10T08:12:25.901Z,18.11
2022-09-10T08:14:52.537Z,18.16
2022-09-10T08:17:19.066Z,18.12
2022-09-10T08:19:45.545Z,18.09
2022-09-10T08:22:13.997Z,18.10
2022-09-10T08:24:40.453Z,18.08
2022-09-10T08:27:06.931Z,18.26
2022-09-10T08:29:34.819Z,18.55
2022-09-10T08:32:01.348Z,18.67
2022-09-10T08:34:29.529Z,18.94
2022-09-10T08:36:56.026Z,19.20
2022-09-10T08:39:22.458Z,19.24
2022-09-10T08:41:59.525Z,19.64
2022-09-10T08:44:34.681Z,19.76
2022-09-10T08:47:11.288Z,20.03
2022-09-10T08:49:45.787Z,20.21
2022-09-10T08:52:38.995Z,20.25
2022-09-10T08:55:17.551Z,20.19
2022-09-10T08:57:54.693Z,20.16
2022-09-10T09:00:26.936Z,20.28
2022-09-10T09:03:20.941Z,20.63
2022-09-10T09:05:50.331Z,20.90
2022-09-10T09:08:21.878Z,21.35
2022-09-10T09:10:53.657Z,21.22
2022-09-10T09:13:45.145Z,21.47
2022-09-10T09:16:33.737Z,21.60
2022-09-10T09:19:28.384Z,21.90
2022-09-10T09:21:59.714Z,22.59
2022-09-10T09:24:44.522Z,22.55
2022-09-10T09:27:19.297Z,22.61
2022-09-10T09:30:05.469Z,22.35
2022-09-10T09:32:35.763Z,22.11
2022-09-10T09:35:24.033Z,22.07
2022-09-10T09:38:03.523Z,21.83
2022-09-10T09:40:57.790Z,22.07
2022-09-10T09:43:45.800Z,22.06
2022-09-10T09:46:21.086Z,22.09
2022-09-10T09:48:48.865Z,22.13
2022-09-10T09:51:21.760Z,21.95
2022-09-10T09:54:06.153Z,22.01
2022-09-10T09:56:42.952Z,21.77
2022-09-10T09:59:35.998Z,21.84
2022-09-10T10:02:12.668Z,21.62
2022-09-10T10:04:52.516Z,21.66
2022-09-10T10:07:25.680Z,21.66
2022-09-10T10:09:52.660Z,21.96
2022-09-10T10:12:20.854Z,21.66
2022-09-10T10:14:47.486Z,21.90
2022-09-10T10:17:34.454Z,22.15
2022-09-10T10:20:08.826Z,22.15
2022-09-10T10:22:38.143Z,22.10
2022-09-10T10:25:27.000Z,22.21
2022-09-10T10:27:54.474Z,22.13
2022-09-10T10:30:24.090Z,22.37
2022-09-10T10:32:58.990Z,22.24
2022-09-10T10:35:36.170Z,22.35
2022-09-10T10:38:31.490Z,22.44
2022-09-10T10:41:13.095Z,22.61
2022-09-10T10:43:42.574Z,22.39
2022-09-10T10:46:20.298Z,22.68
2022-09-10T10:49:03.839Z,22.74
2022-09-10T10:51:42.152Z,22.88
2022-09-10T10:54:28.649Z,23.03
2022-09-10T10:57:01.593Z,23.10
2022-09-10T11:00:01.305Z,23.09
2022-09-10T11:02:38.584Z,22.93
2022-09-10T11:05:25.708Z,22.90
2022-09-10T11:07:52.945Z,22.87
2022-09-10T11:10:29.521Z,22.97
2022-09-10T11:13:13.506Z,23.00
2022-09-10T11:16:22.264Z,22.84
2022-09-10T11:19:03.698Z,22.82
2022-09-10T11:21:45.397Z,22.62
2022-09-10T11:24:27.093Z,22.81
2022-09-10T11:27:02.829Z,22.75
2022-09-10T11:29:44.454Z,22.93
2022-09-10T11:32:45.294Z,22.91
2022-09-10T11:35:33.737Z,22.96
2022-09-10T11:38:01.457Z,22.96
2022-09-10T11:40:41.848Z,22.87
2022-09-10T11:43:14.745Z,22.99
2022-09-10T11:45:53.168Z,22.86
2022-09-10T11:48:58.000Z,22.99
2022-09-10T11:51:29.337Z,23.09
2022-09-10T11:53:56.578Z,23.00
2022-09-10T11:56:23.203Z,23.02
2022-09-10T11:58:49.658Z,22.93
2022-09-10T12:01:46.665Z,22.92
2022-09-10T12:04:31.216Z,22.98
2022-09-10T12:07:19.477Z,22.94
2022-09-10T12:10:05.411Z,23.00
2022-09-10T12:12:58.678Z,23.02
2022-09-10T12:15:31.247Z,23.02
2022-09-10T12:18:04.276Z,22.96
2022-09-10T12:20:42.239Z,22.98
2022-09-10T12:23:17.534Z,22.96
2022-09-10T12:25:44.345Z,22.83
2022-09-10T12:28:42.425Z,22.95
2022-09-10T12:31:21.051Z,22.92
2022-09-10T12:33:47.532Z,23.03
2022-09-10T12:36:34.572Z,23.05
2022-09-10T12:39:26.438Z,22.84
2022-09-10T12:41:53.244Z,22.95
2022-09-10T12:44:34.743Z,23.02
2022-09-10T12:47:16.574Z,23.00
2022-09-10T12:49:54.821Z,22.80
2022-09-10T12:52:52.679Z,22.89
2022-09-10T12:55:48.488Z,23.12
2022-09-10T12:58:36.729Z,23.23
2022-09-10T13:01:09.304Z,23.14
2022-09-10T13:03:36.148Z,22.96
2022-09-10T13:06:05.339Z,22.82
2022-09-10T13:08:41.600Z,22.65
2022-09-10T13:11:22.445Z,22.81
2022-09-10T13:13:48.855Z,22.92
2022-09-10T13:16:21.979Z,22.64
2022-09-10T13:18:55.055Z,22.87
2022-09-10T13:21:23.299Z,22.77
2022-09-10T13:23:52.628Z,22.66
2022-09-10T13:26:31.544Z,22.80
2022-09-10T13:29:00.480Z,22.83
2022-09-10T13:31:33.570Z,22.96
2022-09-10T13:34:15.425Z,23.02
2022-09-10T13:37:34.371Z,23.10
2022-09-10T13:40:29.418Z,23.03
2022-09-10T13:43:23.443Z,23.14
2022-09-10T13:46:05.015Z,23.12
2022-09-10T13:48:46.353Z,22.81
2022-09-10T13:51:42.792Z,22.79
2022-09-10T13:54:29.544Z,22.91
2022-09-10T13:56:59.761Z,23.03
2022-09-10T13:59:31.260Z,22.83
2022-09-10T14:01:59.524Z,23.05
2022-09-10T14:04:26.438Z,23.08
2022-09-10T14:07:03.731Z,23.18
2022-09-10T14:09:32.653Z,23.21
2022-09-10T14:12:06.529Z,23.28
2022-09-10T14:14:38.149Z,23.20
2022-09-10T14:17:09.393Z,23.08
2022-09-10T14:19:41.991Z,23.17
2022-09-10T14:22:16.042Z,23.15
2022-09-10T14:24:50.660Z,23.17
2022-09-10T14:27:17.210Z,23.25
2022-09-10T14:29:44.215Z,23.35
2022-09-10T14:32:16.876Z,23.36
2022-09-10T14:34:43.487Z,23.39
2022-09-10T14:37:25.526Z,23.21
2022-09-10T14:39:52.355Z,23.26
2022-09-10T14:42:21.857Z,23.29
2022-09-10T14:44:48.351Z,23.28
2022-09-10T14:47:28.306Z,23.30
2022-09-10T14:49:54.852Z,23.29
2022-09-10T14:52:22.479Z,22.84
2022-09-10T14:55:11.146Z,23.08
2022-09-10T14:57:38.442Z,23.11
2022-09-10T15:00:05.496Z,23.20
2022-09-10T15:02:32.007Z,23.16
2022-09-10T15:04:58.709Z,23.19
2022-09-10T15:07:25.296Z,23.31
2022-09-10T15:09:53.431Z,23.35
2022-09-10T15:12:25.763Z,23.41
2022-09-10T15:14:52.452Z,23.37
2022-09-10T15:17:19.092Z,23.49
2022-09-10T15:19:50.203Z,23.74
2022-09-10T15:22:24.845Z,23.77
2022-09-10T15:25:09.076Z,23.96
2022-09-10T15:27:37.162Z,23.58
2022-09-10T15:30:05.396Z,23.80
2022-09-10T15:32:32.006Z,23.60
2022-09-10T15:34:59.355Z,23.90
2022-09-10T15:37:26.069Z,24.02
2022-09-10T15:39:54.648Z,24.14
2022-09-10T15:42:21.416Z,24.16
2022-09-10T15:44:47.881Z,24.27
2022-09-10T15:47:14.932Z,23.97
2022-09-10T15:49:41.593Z,24.35
2022-09-10T15:52:08.377Z,24.60
2022-09-10T15:54:34.936Z,24.45
2022-09-10T15:57:01.534Z,24.65
2022-09-10T15:59:28.580Z,25.01
2022-09-10T16:01:55.264Z,24.72
2022-09-10T16:04:21.937Z,24.25
2022-09-10T16:06:48.443Z,24.83
2022-09-10T16:09:15.086Z,24.96
2022-09-10T16:11:42.585Z,24.83
2022-09-10T16:14:13.527Z,25.18
2022-09-10T16:16:41.005Z,25.24
2022-09-10T16:19:08.292Z,25.32
2022-09-10T16:21:37.393Z,24.77
2022-09-10T16:24:04.990Z,24.93
2022-09-10T16:26:38.005Z,25.10
2022-09-10T16:29:07.532Z,25.10
2022-09-10T16:31:36.956Z,25.20
2022-09-10T16:34:05.531Z,25.02
2022-09-10T16:36:34.614Z,24.66
2022-09-10T16:39:05.257Z,24.58
2022-09-10T16:41:33.079Z,24.66
2022-09-10T16:44:00.612Z,23.93
2022-09-10T16:46:28.189Z,24.19
2022-09-10T16:48:56.138Z,24.49
2022-09-10T16:51:24.740Z,24.52
2022-09-10T16:54:02.837Z,24.59
2022-09-10T16:56:33.651Z,24.42
2022-09-10T16:59:00.334Z,24.67
2022-09-10T17:01:26.895Z,24.72
2022-09-10T17:03:53.756Z,24.72
2022-09-10T17:06:24.272Z,24.38
2022-09-10T17:08:54.657Z,24.37
2022-09-10T17:11:22.836Z,24.57
2022-09-10T17:13:50.997Z,24.62
2022-09-10T17:16:38.115Z,24.64
2022-09-10T17:19:14.273Z,24.35
2022-09-10T17:21:44.084Z,24.40
2022-09-10T17:24:12.330Z,24.23
2022-09-10T17:26:40.590Z,24.18
2022-09-10T17:29:14.619Z,24.21
2022-09-10T17:31:42.083Z,24.15
2022-09-10T17:34:12.830Z,23.96
2022-09-10T17:36:41.380Z,23.55
2022-09-10T17:39:09.795Z,23.57
2022-09-10T17:41:36.392Z,23.56
2022-09-10T17:44:03.222Z,23.61
2022-09-10T17:46:31.191Z,23.56
2022-09-10T17:48:59.595Z,23.52
2022-09-10T17:51:29.515Z,23.44
2022-09-10T17:53:56.608Z,23.22
2022-09-10T17:56:25.025Z,23.19
2022-09-10T17:58:59.301Z,23.05
2022-09-10T18:01:31.139Z,23.03
2022-09-10T18:03:57.922Z,22.99
2022-09-10T18:06:25.333Z,22.89
2022-09-10T18:08:52.697Z,22.80
2022-09-10T18:11:22.905Z,22.71
2022-09-10T18:13:54.580Z,22.62
2022-09-10T18:16:23.937Z,22.51
2022-09-10T18:18:54.007Z,22.41
2022-09-10T18:21:25.491Z,22.34
2022-09-10T18:23:57.541Z,22.25
2022-09-10T18:26:26.174Z,22.12
2022-09-10T18:28:54.051Z,22.09
2022-09-10T18:31:20.625Z,21.97
2022-09-10T18:33:47.394Z,21.93
2022-09-10T18:36:16.279Z,21.84
2022-09-10T18:38:43.738Z,21.73
2022-09-10T18:41:24.937Z,21.63
2022-09-10T18:43:54.067Z,21.55
2022-09-10T18:46:20.904Z,21.45
2022-09-10T18:48:50.276Z,21.38
2022-09-10T18:51:30.583Z,21.25
2022-09-10T18:54:00.080Z,21.21
2022-09-10T18:56:31.908Z,21.14
2022-09-10T18:59:01.212Z,21.03
2022-09-10T19:01:31.260Z,20.99
2022-09-10T19:03:58.276Z,20.90
2022-09-10T19:06:29.335Z,20.81
2022-09-10T19:08:58.871Z,20.69
2022-09-10T19:11:29.407Z,20.64
2022-09-10T19:13:57.224Z,20.58
2022-09-10T19:16:28.942Z,20.45
2022-09-10T19:18:58.467Z,20.42
2022-09-10T19:21:26.845Z,20.34
2022-09-10T19:23:59.541Z,20.28
2022-09-10T19:26:31.408Z,20.21
2022-09-10T19:28:59.279Z,20.12
2022-09-10T19:31:27.286Z,20.01
2022-09-10T19:33:56.473Z,19.98
2022-09-10T19:36:23.026Z,19.92
2022-09-10T19:38:50.257Z,19.76
2022-09-10T19:41:20.935Z,19.68
2022-09-10T19:43:49.584Z,19.64
2022-09-10T19:46:22.583Z,19.57
2022-09-10T19:48:54.556Z,19.54
2022-09-10T19:51:21.929Z,19.34
2022-09-10T19:53:49.628Z,19.40
2022-09-10T19:56:21.081Z,19.34
2022-09-10T19:58:53.771Z,19.25
2022-09-10T20:01:24.372Z,19.13
2022-09-10T20:03:53.499Z,19.10
2022-09-10T20:06:22.261Z,18.99
2022-09-10T20:08:50.565Z,19.05
2022-09-10T20:11:22.907Z,18.93
2022-09-10T20:13:53.374Z,18.92
2022-09-10T20:16:19.945Z,18.81
2022-09-10T20:18:46.764Z,18.87
2022-09-10T20:21:15.583Z,18.81
2022-09-10T20:23:44.500Z,18.77
2022-09-10T20:26:19.629Z,18.71
2022-09-10T20:28:52.122Z,18.69
2022-09-10T20:31:19.076Z,18.66
2022-09-10T20:33:45.855Z,18.62
2022-09-10T20:36:17.791Z,18.56
2022-09-10T20:39:44.321Z,18.48
2022-09-10T20:42:11.281Z,18.41
2022-09-10T20:44:38.012Z,18.35
2022-09-10T20:47:07.163Z,18.30
2022-09-10T20:49:33.799Z,18.19
2022-09-10T20:52:00.433Z,18.12
2022-09-10T20:54:28.098Z,18.13
2022-09-10T20:56:54.630Z,18.11
2022-09-10T20:59:25.532Z,18.10
2022-09-10T21:01:54.148Z,18.06
2022-09-10T21:04:22.035Z,17.99
2022-09-10T21:06:48.662Z,17.98
2022-09-10T21:09:15.277Z,17.94
2022-09-10T21:11:41.951Z,17.88
2022-09-10T21:14:09.058Z,17.72
2022-09-10T21:16:41.525Z,17.76
2022-09-10T21:19:12.500Z,17.74
2022-09-10T21:21:40.352Z,17.69
2022-09-10T21:24:25.058Z,17.66
2022-09-10T21:27:05.264Z,17.62
2022-09-10T21:29:37.315Z,17.57
2022-09-10T21:32:10.541Z,17.51
2022-09-10T21:34:37.123Z,17.46
2022-09-10T21:37:03.919Z,17.46
2022-09-10T21:39:30.458Z,17.42
2022-09-10T21:41:57.109Z,17.41
2022-09-10T21:44:25.056Z,17.38
2022-09-10T21:46:52.647Z,17.35
2022-09-10T21:49:20.339Z,17.32
2022-09-10T21:51:46.989Z,17.28
2022-09-10T21:54:15.767Z,17.25
2022-09-10T21:56:42.296Z,17.24
2022-09-10T21:59:10.589Z,17.19
2022-09-10T22:01:37.114Z,17.16
2022-09-10T22:04:04.131Z,17.13
2022-09-10T22:06:32.778Z,17.08
2022-09-10T22:09:01.945Z,17.04
2022-09-10T22:11:30.888Z,16.98
2022-09-10T22:14:06.788Z,16.99
2022-09-10T22:16:35.017Z,16.92
2022-09-10T22:19:05.885Z,16.90
2022-09-10T22:21:33.206Z,16.83
2022-09-10T22:23:59.745Z,16.83
2022-09-10T22:26:28.285Z,16.80
2022-09-10T22:28:56.856Z,16.75
2022-09-10T22:31:26.474Z,16.70
2022-09-10T22:33:55.449Z,16.70
2022-09-10T22:36:31.647Z,16.65
2022-09-10T22:39:03.586Z,16.64
2022-09-10T22:41:31.810Z,16.60
2022-09-10T22:43:58.399Z,16.54
2022-09-10T22:46:25.031Z,16.51
2022-09-10T22:48:51.641Z,16.51
2022-09-10T22:51:23.906Z,16.47
2022-09-10T22:53:52.612Z,16.43
2022-09-10T22:56:22.160Z,16.40
2022-09-10T22:58:51.685Z,16.37
2022-09-10T23:01:20.540Z,16.30
2022-09-10T23:03:48.692Z,16.27
2022-09-10T23:06:18.533Z,16.24
2022-09-10T23:08:47.751Z,16.23
2022-09-10T23:11:19.139Z,16.25
2022-09-10T23:13:47.821Z,16.21
2022-09-10T23:16:21.763Z,16.18
2022-09-10T23:18:50.686Z,16.11
2022-09-10T23:21:23.126Z,16.06
2022-09-10T23:23:54.847Z,16.05
2022-09-10T23:26:22.148Z,16.03
2022-09-10T23:28:49.405Z,16.02
2022-09-10T23:31:17.423Z,16.01
2022-09-10T23:33:46.747Z,15.95
2022-09-10T23:36:14.054Z,15.93
2022-09-10T23:38:42.704Z,15.89
2022-09-10T23:41:13.808Z,15.83
2022-09-10T23:43:40.656Z,15.80
2022-09-10T23:46:08.986Z,15.81
2022-09-10T23:48:36.351Z,15.77
2022-09-10T23:51:04.156Z,15.73
2022-09-10T23:53:31.825Z,15.73
2022-09-10T23:55:59.214Z,15.66
2022-09-10T23:58:25.816Z,15.66
